Terminal Aerodrome Forecast
Issued by NWS

Home | Current Version | Previous Version | Text Only | Print | Product List | Glossary On
Versions: 1 2 3 4 5 6 7 8 9 10 11 12 13 14
000
FTUS45 KTFX 250900 AAA
TAFHLN
TAF AMD
KHLN 250932Z 2510/2606 34011KT P6SM VCSH OVC050
      TEMPO 2510/2511 36011G21KT 3SM -SN OVC025
     FM251200 36008KT 6SM -SN BR SCT020 OVC035
     FM252000 VRB05KT P6SM SCT030 BKN050=

USA.gov is the U.S. government's official web portal to all federal, state and local government web resources and services.